createdAt,value
2018-12-09T00:00:19.440Z,51.52
2018-12-09T00:00:51.029Z,51.55
2018-12-09T00:01:22.622Z,51.69
2018-12-09T00:01:54.237Z,51.66
2018-12-09T00:02:25.821Z,51.64
2018-12-09T00:02:57.404Z,51.75
2018-12-09T00:03:28.994Z,51.80
2018-12-09T00:04:00.585Z,51.82
2018-12-09T00:04:32.167Z,51.88
2018-12-09T00:05:03.761Z,51.89
2018-12-09T00:05:35.372Z,51.88
2018-12-09T00:06:06.959Z,51.91
2018-12-09T00:06:38.572Z,51.95
2018-12-09T00:07:10.183Z,51.95
2018-12-09T00:07:41.782Z,51.95
2018-12-09T00:08:13.392Z,52.02
2018-12-09T00:08:44.989Z,52.03
2018-12-09T00:09:16.585Z,52.04
2018-12-09T00:09:48.188Z,52.14
2018-12-09T00:10:19.795Z,52.15
2018-12-09T00:10:51.403Z,52.09
2018-12-09T00:11:22.997Z,52.14
2018-12-09T00:11:54.617Z,52.04
2018-12-09T00:12:26.216Z,52.20
2018-12-09T00:12:57.814Z,52.31
2018-12-09T00:13:29.415Z,52.29
2018-12-09T00:14:01.009Z,52.24
2018-12-09T00:14:32.604Z,52.22
2018-12-09T00:15:04.212Z,52.23
2018-12-09T00:15:35.819Z,52.31
2018-12-09T00:16:07.432Z,52.26
2018-12-09T00:16:39.068Z,52.24
2018-12-09T00:17:10.665Z,52.29
2018-12-09T00:17:42.332Z,52.32
2018-12-09T00:18:13.941Z,52.24
2018-12-09T00:18:45.524Z,52.24
2018-12-09T00:19:17.123Z,52.31
2018-12-09T00:19:48.709Z,52.15
2018-12-09T00:20:20.333Z,52.34
2018-12-09T00:20:51.941Z,52.42
2018-12-09T00:21:23.553Z,52.40
2018-12-09T00:21:55.174Z,52.41
2018-12-09T00:22:26.784Z,52.44
2018-12-09T00:22:58.382Z,52.50
2018-12-09T00:23:29.995Z,52.42
2018-12-09T00:24:01.590Z,52.47
2018-12-09T00:24:33.181Z,52.39
2018-12-09T00:25:04.786Z,52.43
2018-12-09T00:25:36.386Z,52.45
2018-12-09T00:26:07.981Z,52.51
2018-12-09T00:26:39.597Z,52.46
2018-12-09T00:27:11.190Z,52.45
2018-12-09T00:27:42.773Z,52.39
2018-12-09T00:28:14.356Z,52.44
2018-12-09T00:28:45.940Z,52.34
2018-12-09T00:29:17.524Z,52.37
2018-12-09T00:29:49.126Z,52.37
2018-12-09T00:30:20.737Z,52.46
2018-12-09T00:30:52.320Z,52.40
2018-12-09T00:31:23.932Z,52.52
2018-12-09T00:31:55.554Z,52.50
2018-12-09T00:32:27.153Z,52.52
2018-12-09T00:32:58.745Z,52.53
2018-12-09T00:33:30.332Z,52.58
2018-12-09T00:34:01.944Z,52.54
2018-12-09T00:34:33.556Z,52.61
2018-12-09T00:35:05.146Z,52.52
2018-12-09T00:35:36.728Z,52.69
2018-12-09T00:36:08.317Z,52.67
2018-12-09T00:36:40.107Z,52.69
2018-12-09T00:37:11.703Z,52.59
2018-12-09T00:37:43.298Z,52.79
2018-12-09T00:38:14.908Z,52.88
2018-12-09T00:38:46.525Z,52.89
2018-12-09T00:39:18.137Z,52.66
2018-12-09T00:39:49.733Z,52.83
2018-12-09T00:40:21.323Z,52.34
2018-12-09T00:40:52.932Z,52.35
2018-12-09T00:41:24.533Z,52.38
2018-12-09T00:41:56.118Z,52.26
2018-12-09T00:42:27.714Z,51.87
2018-12-09T00:42:59.309Z,51.72
2018-12-09T00:43:30.919Z,51.78
2018-12-09T00:44:02.524Z,51.61
2018-12-09T00:44:34.117Z,51.73
2018-12-09T00:45:05.710Z,51.81
2018-12-09T00:45:37.302Z,51.74
2018-12-09T00:46:08.934Z,51.69
2018-12-09T00:46:40.520Z,51.72
2018-12-09T00:47:12.114Z,51.67
2018-12-09T00:47:43.710Z,51.76
2018-12-09T00:48:15.298Z,51.49
2018-12-09T00:48:46.896Z,51.69
2018-12-09T00:49:18.489Z,51.71
2018-12-09T00:49:50.099Z,51.72
2018-12-09T00:50:21.701Z,51.81
2018-12-09T00:50:53.293Z,51.67
2018-12-09T00:51:24.878Z,51.74
2018-12-09T00:51:56.512Z,51.80
2018-12-09T00:52:28.115Z,51.96
2018-12-09T00:52:59.728Z,52.35
2018-12-09T00:53:31.326Z,52.23
2018-12-09T00:54:02.917Z,52.11
2018-12-09T00:54:34.568Z,52.07
2018-12-09T00:55:06.168Z,52.01
2018-12-09T00:55:37.765Z,52.15
2018-12-09T00:56:09.376Z,52.11
2018-12-09T00:56:40.970Z,52.23
2018-12-09T00:57:12.593Z,51.98
2018-12-09T00:57:44.195Z,51.96
2018-12-09T00:58:15.804Z,51.99
2018-12-09T00:58:47.388Z,52.00
2018-12-09T00:59:18.967Z,51.97
2018-12-09T00:59:50.559Z,51.94
2018-12-09T01:00:22.154Z,51.91
2018-12-09T01:00:53.745Z,52.05
2018-12-09T01:01:25.353Z,51.95
2018-12-09T01:01:56.983Z,51.96
2018-12-09T01:02:28.586Z,51.97
2018-12-09T01:03:00.177Z,52.02
2018-12-09T01:03:31.759Z,51.94
2018-12-09T01:04:03.356Z,52.06
2018-12-09T01:04:34.968Z,51.97
2018-12-09T01:05:06.577Z,51.94
2018-12-09T01:05:38.183Z,51.89
2018-12-09T01:06:09.792Z,51.83
2018-12-09T01:06:41.399Z,51.88
2018-12-09T01:07:13.120Z,51.89
2018-12-09T01:07:44.654Z,52.12
2018-12-09T01:08:16.370Z,51.98
2018-12-09T01:08:47.931Z,52.11
2018-12-09T01:09:23.630Z,51.98
2018-12-09T01:09:55.470Z,52.10
2018-12-09T01:10:27.068Z,51.99
2018-12-09T01:10:58.669Z,51.96
2018-12-09T01:11:30.282Z,51.87
2018-12-09T01:12:01.919Z,51.95
2018-12-09T01:12:33.515Z,51.90
2018-12-09T01:13:05.124Z,51.86
2018-12-09T01:13:36.731Z,51.83
2018-12-09T01:14:08.339Z,51.87
2018-12-09T01:14:39.950Z,51.77
2018-12-09T01:15:11.545Z,51.84
2018-12-09T01:15:43.160Z,51.74
2018-12-09T01:16:14.770Z,51.79
2018-12-09T01:16:46.377Z,52.01
2018-12-09T01:17:18.007Z,51.94
2018-12-09T01:17:49.602Z,51.92
2018-12-09T01:18:21.217Z,51.94
2018-12-09T01:18:52.814Z,51.78
2018-12-09T01:19:24.409Z,51.79
2018-12-09T01:19:56.018Z,51.77
2018-12-09T01:20:27.622Z,51.80
2018-12-09T01:20:59.204Z,51.75
2018-12-09T01:21:30.797Z,51.68
2018-12-09T01:22:02.413Z,51.68
2018-12-09T01:22:34.050Z,51.76
2018-12-09T01:23:05.660Z,51.70
2018-12-09T01:23:37.261Z,51.71
2018-12-09T01:24:08.863Z,51.69
2018-12-09T01:24:40.475Z,51.69
2018-12-09T01:25:12.074Z,51.65
2018-12-09T01:25:43.674Z,51.70
2018-12-09T01:26:15.281Z,51.74
2018-12-09T01:26:46.929Z,51.82
2018-12-09T01:27:18.553Z,51.77
2018-12-09T01:27:50.197Z,51.78
2018-12-09T01:28:21.814Z,51.81
2018-12-09T01:28:53.423Z,51.81
2018-12-09T01:29:25.034Z,51.85
2018-12-09T01:29:56.642Z,51.79
2018-12-09T01:30:28.238Z,51.80
2018-12-09T01:30:59.842Z,51.72
2018-12-09T01:31:31.454Z,51.73
2018-12-09T01:32:03.091Z,51.72
2018-12-09T01:32:34.718Z,51.74
2018-12-09T01:33:06.320Z,51.77
2018-12-09T01:33:37.911Z,51.86
2018-12-09T01:34:09.520Z,51.90
2018-12-09T01:34:41.122Z,51.97
2018-12-09T01:35:12.731Z,51.98
2018-12-09T01:35:44.330Z,52.00
2018-12-09T01:36:15.929Z,52.07
2018-12-09T01:36:47.592Z,52.09
2018-12-09T01:37:19.216Z,51.99
2018-12-09T01:37:50.865Z,51.99
2018-12-09T01:38:22.462Z,52.02
2018-12-09T01:38:54.083Z,51.97
2018-12-09T01:39:25.681Z,51.94
2018-12-09T01:39:57.295Z,52.01
2018-12-09T01:40:28.897Z,51.98
2018-12-09T01:41:00.559Z,51.99
2018-12-09T01:41:32.150Z,52.03
2018-12-09T01:42:03.745Z,52.08
2018-12-09T01:42:35.365Z,52.09
2018-12-09T01:43:06.971Z,52.11
2018-12-09T01:43:38.569Z,52.06
2018-12-09T01:44:10.159Z,52.03
2018-12-09T01:44:41.775Z,52.17
2018-12-09T01:45:13.380Z,52.34
2018-12-09T01:45:45.000Z,52.48
2018-12-09T01:46:16.598Z,52.43
2018-12-09T01:46:48.250Z,52.51
2018-12-09T01:47:19.883Z,52.51
2018-12-09T01:47:51.499Z,52.46
2018-12-09T01:48:23.119Z,52.51
2018-12-09T01:48:54.722Z,52.49
2018-12-09T01:49:26.338Z,52.44
2018-12-09T01:49:57.955Z,52.40
2018-12-09T01:50:29.550Z,52.43
2018-12-09T01:51:01.165Z,52.37
2018-12-09T01:51:32.791Z,52.45
2018-12-09T01:52:04.405Z,52.56
2018-12-09T01:52:36.051Z,52.65
2018-12-09T01:53:07.650Z,52.58
2018-12-09T01:53:39.250Z,52.63
2018-12-09T01:54:10.859Z,52.73
2018-12-09T01:54:42.504Z,52.66
2018-12-09T01:55:14.110Z,52.74
2018-12-09T01:55:45.699Z,52.64
2018-12-09T01:56:17.297Z,52.70
2018-12-09T01:56:48.996Z,52.72
2018-12-09T01:57:20.633Z,52.74
2018-12-09T01:57:52.273Z,52.74
2018-12-09T01:58:23.899Z,52.64
2018-12-09T01:58:55.516Z,52.64
2018-12-09T01:59:27.124Z,52.69
2018-12-09T01:59:58.746Z,52.76
2018-12-09T02:00:30.368Z,52.76
2018-12-09T02:01:01.976Z,52.75
2018-12-09T02:01:33.592Z,52.98
2018-12-09T02:02:05.201Z,52.95
2018-12-09T02:02:36.835Z,52.81
2018-12-09T02:03:08.448Z,52.73
2018-12-09T02:03:40.064Z,52.71
2018-12-09T02:04:11.661Z,52.69
2018-12-09T02:04:43.271Z,52.66
2018-12-09T02:05:14.874Z,52.64
2018-12-09T02:05:46.491Z,52.55
2018-12-09T02:06:18.093Z,52.61
2018-12-09T02:06:49.742Z,52.66
2018-12-09T02:07:21.355Z,52.61
2018-12-09T02:07:52.974Z,52.56
2018-12-09T02:08:24.560Z,52.77
2018-12-09T02:08:56.143Z,52.87
2018-12-09T02:09:27.765Z,52.66
2018-12-09T02:09:59.344Z,52.81
2018-12-09T02:10:30.946Z,52.88
2018-12-09T02:11:02.551Z,52.95
2018-12-09T02:11:34.159Z,53.01
2018-12-09T02:12:05.745Z,52.95
2018-12-09T02:12:37.366Z,53.02
2018-12-09T02:13:08.961Z,52.90
2018-12-09T02:13:40.558Z,53.11
2018-12-09T02:14:12.153Z,52.99
2018-12-09T02:14:43.754Z,52.89
2018-12-09T02:15:15.357Z,53.09
2018-12-09T02:15:46.972Z,53.37
2018-12-09T02:16:18.600Z,53.38
2018-12-09T02:16:50.267Z,53.22
2018-12-09T02:17:21.856Z,53.06
2018-12-09T02:17:53.486Z,53.03
2018-12-09T02:18:25.100Z,52.99
2018-12-09T02:18:56.716Z,52.91
2018-12-09T02:19:28.332Z,51.65
2018-12-09T02:19:59.940Z,52.62
2018-12-09T02:20:31.546Z,52.33
2018-12-09T02:21:03.153Z,52.54
2018-12-09T02:21:34.748Z,53.00
2018-12-09T02:22:06.345Z,52.46
2018-12-09T02:22:37.988Z,52.45
2018-12-09T02:23:09.576Z,52.46
2018-12-09T02:23:41.183Z,52.56
2018-12-09T02:24:12.782Z,52.78
2018-12-09T02:24:44.381Z,52.73
2018-12-09T02:25:15.985Z,52.56
2018-12-09T02:25:47.591Z,52.71
2018-12-09T02:26:19.569Z,52.60
2018-12-09T02:26:51.235Z,52.61
2018-12-09T02:27:22.825Z,52.69
2018-12-09T02:27:54.456Z,52.68
2018-12-09T02:28:26.062Z,52.71
2018-12-09T02:28:57.665Z,52.68
2018-12-09T02:29:29.261Z,52.73
2018-12-09T02:30:00.856Z,52.74
2018-12-09T02:30:32.449Z,52.77
2018-12-09T02:31:04.052Z,52.79
2018-12-09T02:31:35.663Z,52.72
2018-12-09T02:32:07.280Z,52.91
2018-12-09T02:32:38.897Z,52.91
2018-12-09T02:33:10.544Z,52.87
2018-12-09T02:33:42.146Z,52.90
2018-12-09T02:34:13.741Z,52.94
2018-12-09T02:34:45.342Z,52.87
2018-12-09T02:35:16.938Z,52.90
2018-12-09T02:35:48.553Z,52.93
2018-12-09T02:36:20.176Z,52.92
2018-12-09T02:36:51.837Z,52.96
2018-12-09T02:37:23.456Z,52.96
2018-12-09T02:37:55.085Z,53.01
2018-12-09T02:38:26.685Z,53.08
2018-12-09T02:38:58.282Z,53.09
2018-12-09T02:39:29.873Z,53.17
2018-12-09T02:40:01.496Z,53.10
2018-12-09T02:40:33.097Z,53.22
2018-12-09T02:41:04.698Z,53.33
2018-12-09T02:41:36.316Z,53.26
2018-12-09T02:42:07.914Z,53.43
2018-12-09T02:42:39.515Z,53.40
2018-12-09T02:43:11.155Z,53.47
2018-12-09T02:43:42.767Z,53.45
2018-12-09T02:44:14.383Z,53.40
2018-12-09T02:44:45.982Z,53.52
2018-12-09T02:45:17.605Z,53.57
2018-12-09T02:45:49.225Z,53.53
2018-12-09T02:46:20.824Z,53.51
2018-12-09T02:46:52.470Z,53.58
2018-12-09T02:47:24.083Z,53.58
2018-12-09T02:47:55.725Z,53.54
2018-12-09T02:48:27.339Z,53.63
2018-12-09T02:48:58.950Z,53.62
2018-12-09T02:49:30.621Z,53.69
2018-12-09T02:50:02.222Z,53.67
2018-12-09T02:50:33.824Z,53.65
2018-12-09T02:51:05.427Z,53.67
2018-12-09T02:51:37.032Z,53.72
2018-12-09T02:52:08.648Z,53.71
2018-12-09T02:52:40.254Z,53.75
2018-12-09T02:53:11.881Z,53.79
2018-12-09T02:53:43.510Z,53.72
2018-12-09T02:54:15.095Z,53.81
2018-12-09T02:54:46.703Z,53.83
2018-12-09T02:55:18.324Z,53.85
2018-12-09T02:55:49.990Z,53.84
2018-12-09T02:56:21.619Z,53.88
2018-12-09T02:56:53.263Z,53.90
2018-12-09T02:57:24.858Z,53.93
2018-12-09T02:57:56.487Z,53.95
2018-12-09T02:58:28.121Z,53.94
2018-12-09T02:58:59.770Z,53.90
2018-12-09T02:59:31.365Z,53.98
2018-12-09T03:00:02.952Z,53.98
2018-12-09T03:00:34.567Z,54.02
2018-12-09T03:01:06.193Z,53.98
2018-12-09T03:01:37.811Z,54.02
2018-12-09T03:02:09.402Z,54.06
2018-12-09T03:02:41.003Z,54.06
2018-12-09T03:03:12.648Z,54.07
2018-12-09T03:03:44.259Z,54.02
2018-12-09T03:04:15.858Z,54.04
2018-12-09T03:04:47.476Z,54.09
2018-12-09T03:05:19.075Z,54.08
2018-12-09T03:05:50.723Z,54.10
2018-12-09T03:06:22.373Z,54.18
2018-12-09T03:06:54.033Z,54.12
2018-12-09T03:07:25.652Z,54.16
2018-12-09T03:07:57.276Z,54.18
2018-12-09T03:08:28.901Z,54.16
2018-12-09T03:09:00.498Z,54.18
2018-12-09T03:09:32.108Z,54.20
2018-12-09T03:10:03.723Z,54.20
2018-12-09T03:10:35.325Z,54.27
2018-12-09T03:11:06.932Z,54.34
2018-12-09T03:11:38.532Z,54.34
2018-12-09T03:12:10.145Z,54.36
2018-12-09T03:12:41.749Z,54.39
2018-12-09T03:13:13.392Z,54.42
2018-12-09T03:13:45.008Z,54.44
2018-12-09T03:14:16.610Z,54.44
2018-12-09T03:14:48.222Z,54.41
2018-12-09T03:15:19.821Z,54.45
2018-12-09T03:15:51.469Z,54.44
2018-12-09T03:16:23.074Z,54.45
2018-12-09T03:16:54.674Z,54.49
2018-12-09T03:17:26.264Z,54.51
2018-12-09T03:17:57.865Z,54.50
2018-12-09T03:18:29.491Z,54.57
2018-12-09T03:19:01.090Z,54.58
2018-12-09T03:19:32.706Z,54.55
2018-12-09T03:20:04.323Z,54.59
2018-12-09T03:20:35.951Z,54.61
2018-12-09T03:21:07.553Z,54.62
2018-12-09T03:21:39.160Z,54.58
2018-12-09T03:22:10.748Z,54.65
2018-12-09T03:22:42.346Z,54.70
2018-12-09T03:23:13.975Z,54.68
2018-12-09T03:23:45.600Z,54.64
2018-12-09T03:24:17.216Z,54.61
2018-12-09T03:24:48.880Z,54.67
2018-12-09T03:25:20.479Z,54.70
2018-12-09T03:25:52.125Z,54.73
2018-12-09T03:26:23.988Z,54.77
2018-12-09T03:26:55.573Z,54.70
2018-12-09T03:27:27.181Z,54.80
2018-12-09T03:27:58.774Z,54.78
2018-12-09T03:28:30.407Z,54.81
2018-12-09T03:29:02.018Z,54.79
2018-12-09T03:29:33.634Z,54.79
2018-12-09T03:30:05.260Z,54.81
2018-12-09T03:30:36.893Z,54.82
2018-12-09T03:31:08.493Z,54.81
2018-12-09T03:31:40.096Z,54.84
2018-12-09T03:32:11.717Z,54.83
2018-12-09T03:32:43.331Z,54.85
2018-12-09T03:33:14.933Z,54.88
2018-12-09T03:33:46.525Z,54.85
2018-12-09T03:34:18.137Z,54.88
2018-12-09T03:34:49.767Z,54.88
2018-12-09T03:35:21.366Z,54.94
2018-12-09T03:35:52.961Z,54.95
2018-12-09T03:36:24.558Z,54.88
2018-12-09T03:36:56.144Z,55.02
2018-12-09T03:37:27.727Z,54.89
2018-12-09T03:37:59.327Z,54.97
2018-12-09T03:38:30.950Z,55.00
2018-12-09T03:39:02.568Z,55.02
2018-12-09T03:39:34.184Z,55.11
2018-12-09T03:40:05.781Z,55.02
2018-12-09T03:40:37.391Z,55.01
2018-12-09T03:41:08.999Z,55.01
2018-12-09T03:41:40.612Z,55.10
2018-12-09T03:42:12.210Z,55.10
2018-12-09T03:42:43.836Z,55.15
2018-12-09T03:43:15.443Z,55.16
2018-12-09T03:43:47.095Z,55.22
2018-12-09T03:44:18.791Z,55.18
2018-12-09T03:44:50.409Z,55.21
2018-12-09T03:45:22.014Z,55.27
2018-12-09T03:45:53.613Z,55.25
2018-12-09T03:46:25.209Z,55.31
2018-12-09T03:46:56.800Z,55.32
2018-12-09T03:47:28.402Z,55.40
2018-12-09T03:47:59.997Z,55.47
2018-12-09T03:48:31.629Z,55.42
2018-12-09T03:49:03.234Z,55.45
2018-12-09T03:49:34.844Z,55.50
2018-12-09T03:50:06.451Z,55.54
2018-12-09T03:50:38.063Z,55.59
2018-12-09T03:51:09.649Z,55.63
2018-12-09T03:51:41.255Z,55.57
2018-12-09T03:52:12.854Z,55.61
2018-12-09T03:52:44.488Z,55.63
2018-12-09T03:53:16.090Z,55.65
2018-12-09T03:53:47.752Z,55.65
2018-12-09T03:54:19.349Z,55.62
2018-12-09T03:54:50.946Z,55.61
2018-12-09T03:55:22.550Z,55.69
2018-12-09T03:55:54.149Z,55.75
2018-12-09T03:56:25.736Z,55.74
2018-12-09T03:56:57.353Z,55.74
2018-12-09T03:57:28.955Z,55.69
2018-12-09T03:58:00.594Z,55.74
2018-12-09T03:58:32.219Z,55.76
2018-12-09T03:59:03.864Z,55.80
2018-12-09T03:59:35.457Z,55.80
2018-12-09T04:00:07.072Z,55.79
2018-12-09T04:00:38.693Z,55.82
2018-12-09T04:01:10.297Z,55.74
2018-12-09T04:01:41.945Z,55.81
2018-12-09T04:02:13.545Z,55.84
2018-12-09T04:02:45.203Z,55.81
2018-12-09T04:03:16.823Z,55.81
2018-12-09T04:03:48.473Z,55.86
2018-12-09T04:04:20.091Z,55.77
2018-12-09T04:04:51.732Z,55.78
2018-12-09T04:05:23.359Z,55.77
2018-12-09T04:05:54.969Z,55.88
2018-12-09T04:06:26.592Z,55.80
2018-12-09T04:06:58.183Z,55.81
2018-12-09T04:07:29.786Z,55.88
2018-12-09T04:08:01.385Z,55.83
2018-12-09T04:08:32.991Z,55.77
2018-12-09T04:09:04.628Z,55.75
2018-12-09T04:09:36.226Z,55.78
2018-12-09T04:10:07.821Z,55.80
2018-12-09T04:10:39.459Z,55.85
2018-12-09T04:11:11.053Z,55.89
2018-12-09T04:11:42.724Z,55.82
2018-12-09T04:12:14.326Z,55.85
2018-12-09T04:12:45.934Z,55.83
2018-12-09T04:13:17.534Z,55.83
2018-12-09T04:13:50.974Z,55.91
2018-12-09T04:14:20.851Z,55.86
2018-12-09T04:14:52.469Z,55.82
2018-12-09T04:15:24.080Z,55.83
2018-12-09T04:15:55.681Z,55.77
2018-12-09T04:16:27.297Z,55.85
2018-12-09T04:16:58.899Z,55.84
2018-12-09T04:17:30.517Z,55.85
2018-12-09T04:18:02.114Z,55.88
2018-12-09T04:18:33.724Z,55.85
2018-12-09T04:19:05.362Z,55.80
2018-12-09T04:19:36.961Z,55.79
2018-12-09T04:20:08.555Z,55.92
2018-12-09T04:20:40.216Z,56.01
2018-12-09T04:21:11.832Z,56.01
2018-12-09T04:21:43.424Z,55.92
2018-12-09T04:22:15.012Z,55.89
2018-12-09T04:22:46.605Z,55.78
2018-12-09T04:23:20.050Z,55.76
2018-12-09T04:23:49.847Z,55.83
2018-12-09T04:24:21.479Z,55.79
2018-12-09T04:24:53.093Z,55.79
2018-12-09T04:25:24.709Z,55.85
2018-12-09T04:25:56.323Z,56.00
2018-12-09T04:26:28.291Z,55.86
2018-12-09T04:26:59.890Z,55.90
2018-12-09T04:27:31.504Z,55.82
2018-12-09T04:28:03.102Z,55.94
2018-12-09T04:28:34.707Z,55.73
2018-12-09T04:29:06.335Z,55.77
2018-12-09T04:29:37.972Z,55.96
2018-12-09T04:30:09.589Z,55.90
2018-12-09T04:30:41.201Z,55.85
2018-12-09T04:31:12.802Z,55.89
2018-12-09T04:31:44.387Z,55.85
2018-12-09T04:32:15.995Z,55.93
2018-12-09T04:32:47.588Z,55.91
2018-12-09T04:33:19.186Z,56.00
2018-12-09T04:33:50.777Z,56.03
2018-12-09T04:34:22.412Z,56.04
2018-12-09T04:34:54.029Z,55.99
2018-12-09T04:35:25.630Z,55.98
2018-12-09T04:35:57.230Z,55.95
2018-12-09T04:36:28.831Z,56.04
2018-12-09T04:37:00.442Z,56.08
2018-12-09T04:37:32.136Z,55.92
2018-12-09T04:38:03.761Z,55.99
2018-12-09T04:38:35.423Z,56.04
2018-12-09T04:39:07.060Z,55.98
2018-12-09T04:39:38.708Z,55.94
2018-12-09T04:40:10.310Z,56.00
2018-12-09T04:40:41.969Z,56.03
2018-12-09T04:41:13.576Z,56.00
2018-12-09T04:41:45.172Z,56.02
2018-12-09T04:42:16.789Z,56.26
2018-12-09T04:42:48.415Z,56.09
2018-12-09T04:43:20.012Z,56.11
2018-12-09T04:43:51.601Z,56.08
2018-12-09T04:44:23.361Z,56.09
2018-12-09T04:44:54.970Z,56.18
2018-12-09T04:45:26.566Z,56.11
2018-12-09T04:45:58.234Z,56.07
2018-12-09T04:46:29.825Z,56.22
2018-12-09T04:47:01.408Z,56.18
2018-12-09T04:47:33.069Z,56.27
2018-12-09T04:48:04.683Z,56.22
2018-12-09T04:48:36.348Z,56.19
2018-12-09T04:49:07.969Z,56.21
2018-12-09T04:49:39.608Z,56.27
2018-12-09T04:50:11.210Z,56.29
2018-12-09T04:50:42.805Z,56.19
2018-12-09T04:51:14.405Z,56.30
2018-12-09T04:51:46.002Z,56.25
2018-12-09T04:52:17.601Z,56.15
2018-12-09T04:52:49.211Z,56.22
2018-12-09T04:53:20.815Z,56.23
2018-12-09T04:53:52.421Z,56.28
2018-12-09T04:54:24.072Z,56.29
2018-12-09T04:54:55.672Z,56.37
2018-12-09T04:55:27.296Z,56.37
2018-12-09T04:55:58.907Z,56.30
2018-12-09T04:56:30.510Z,56.38
2018-12-09T04:57:02.122Z,56.38
2018-12-09T04:57:33.783Z,56.39
2018-12-09T04:58:05.378Z,56.26
2018-12-09T04:58:36.962Z,56.37
2018-12-09T04:59:08.548Z,56.30
2018-12-09T04:59:40.187Z,56.33
2018-12-09T05:00:11.803Z,56.24
2018-12-09T05:00:43.405Z,56.32
2018-12-09T05:01:15.001Z,56.26
2018-12-09T05:01:46.619Z,56.34
2018-12-09T05:02:18.205Z,56.31
2018-12-09T05:02:49.815Z,56.24
2018-12-09T05:03:21.435Z,56.22
2018-12-09T05:03:53.039Z,56.26
2018-12-09T05:04:24.678Z,56.34
2018-12-09T05:04:56.321Z,56.39
2018-12-09T05:05:27.937Z,56.32
2018-12-09T05:05:59.534Z,56.39
2018-12-09T05:06:31.203Z,56.34
2018-12-09T05:07:02.811Z,56.48
2018-12-09T05:07:34.418Z,56.61
2018-12-09T05:08:06.029Z,56.49
2018-12-09T05:08:37.621Z,56.41
2018-12-09T05:09:09.204Z,56.40
2018-12-09T05:09:40.834Z,56.66
2018-12-09T05:10:12.623Z,56.80
2018-12-09T05:10:44.440Z,56.87
2018-12-09T05:11:16.521Z,56.60
2018-12-09T05:11:48.282Z,56.72
2018-12-09T05:12:20.167Z,56.63
2018-12-09T05:12:52.047Z,56.72
2018-12-09T05:13:24.018Z,56.72
2018-12-09T05:13:55.940Z,56.66
2018-12-09T05:14:27.722Z,56.65
2018-12-09T05:14:59.701Z,56.66
2018-12-09T05:15:31.324Z,56.77
2018-12-09T05:16:02.934Z,56.71
2018-12-09T05:16:34.604Z,56.80
2018-12-09T05:17:06.199Z,56.71
2018-12-09T05:17:37.795Z,56.69
2018-12-09T05:18:09.412Z,56.63
2018-12-09T05:18:41.010Z,56.69
2018-12-09T05:19:12.609Z,56.76
2018-12-09T05:19:44.229Z,56.76
2018-12-09T05:20:15.835Z,56.83
2018-12-09T05:20:47.441Z,56.62
2018-12-09T05:21:19.099Z,56.58
2018-12-09T05:21:50.692Z,56.61
2018-12-09T05:22:22.312Z,56.74
2018-12-09T05:22:53.913Z,56.77
2018-12-09T05:23:25.538Z,56.75
2018-12-09T05:23:57.135Z,56.58
2018-12-09T05:24:28.852Z,56.64
2018-12-09T05:25:00.499Z,56.67
2018-12-09T05:25:32.168Z,56.72
2018-12-09T05:26:03.785Z,56.68
2018-12-09T05:26:35.433Z,56.65
2018-12-09T05:27:07.025Z,56.61
2018-12-09T05:27:38.612Z,56.70
2018-12-09T05:28:10.233Z,56.56
2018-12-09T05:28:41.847Z,56.64
2018-12-09T05:29:13.451Z,56.71
2018-12-09T05:29:45.106Z,56.65
2018-12-09T05:30:16.710Z,56.61
2018-12-09T05:30:48.313Z,56.76
2018-12-09T05:31:19.929Z,56.61
2018-12-09T05:31:51.544Z,56.61
2018-12-09T05:32:23.160Z,56.67
2018-12-09T05:32:54.752Z,56.53
2018-12-09T05:33:26.368Z,56.47
2018-12-09T05:33:57.969Z,56.62
2018-12-09T05:34:29.622Z,56.65
2018-12-09T05:35:01.257Z,56.60
2018-12-09T05:35:32.861Z,56.69
2018-12-09T05:36:04.472Z,56.62
2018-12-09T05:36:36.074Z,56.63
2018-12-09T05:37:07.669Z,56.67
2018-12-09T05:37:39.248Z,56.67
2018-12-09T05:38:10.856Z,56.62
2018-12-09T05:38:42.472Z,56.64
2018-12-09T05:39:14.083Z,56.61
2018-12-09T05:39:45.691Z,56.64
2018-12-09T05:40:17.316Z,56.68
2018-12-09T05:40:48.929Z,56.61
2018-12-09T05:41:20.545Z,56.60
2018-12-09T05:41:52.132Z,56.62
2018-12-09T05:42:23.783Z,56.63
2018-12-09T05:42:55.396Z,56.68
2018-12-09T05:43:27.035Z,56.75
2018-12-09T05:43:58.623Z,56.68
2018-12-09T05:44:30.230Z,56.92
2018-12-09T05:45:01.868Z,56.84
2018-12-09T05:45:33.478Z,56.71
2018-12-09T05:46:05.073Z,56.82
2018-12-09T05:46:36.683Z,56.79
2018-12-09T05:47:08.296Z,56.75
2018-12-09T05:47:39.911Z,56.76
2018-12-09T05:48:11.505Z,56.74
2018-12-09T05:48:43.102Z,56.84
2018-12-09T05:49:14.720Z,56.75
2018-12-09T05:49:46.326Z,57.01
2018-12-09T05:50:17.904Z,57.10
2018-12-09T05:50:49.502Z,56.99
2018-12-09T05:51:21.167Z,57.00
2018-12-09T05:51:52.779Z,57.08
2018-12-09T05:52:24.387Z,56.98
2018-12-09T05:52:55.989Z,56.98
2018-12-09T05:53:27.602Z,56.89
2018-12-09T05:53:59.222Z,57.17
2018-12-09T05:54:30.822Z,57.02
2018-12-09T05:55:02.469Z,57.08
2018-12-09T05:55:34.074Z,57.07
2018-12-09T05:56:05.676Z,56.99
2018-12-09T05:56:37.274Z,57.04
2018-12-09T05:57:08.878Z,56.97
2018-12-09T05:57:40.483Z,57.06
2018-12-09T05:58:12.089Z,56.81
2018-12-09T05:58:43.689Z,56.80
2018-12-09T05:59:15.292Z,56.96
2018-12-09T05:59:46.915Z,56.96
2018-12-09T06:00:18.579Z,57.00
2018-12-09T06:00:50.172Z,56.92
2018-12-09T06:01:21.760Z,57.01
2018-12-09T06:01:53.357Z,57.09
2018-12-09T06:02:24.976Z,56.87
2018-12-09T06:02:56.575Z,56.96
2018-12-09T06:03:28.182Z,57.13
2018-12-09T06:03:59.781Z,57.07
2018-12-09T06:04:31.378Z,56.93
2018-12-09T06:05:02.992Z,56.98
2018-12-09T06:05:34.619Z,56.99
2018-12-09T06:06:06.223Z,57.10
2018-12-09T06:06:37.828Z,56.89
2018-12-09T06:07:09.441Z,56.98
2018-12-09T06:07:41.052Z,57.14
2018-12-09T06:08:12.640Z,56.93
2018-12-09T06:08:44.244Z,56.97
2018-12-09T06:09:15.898Z,56.86
2018-12-09T06:09:47.501Z,57.03
2018-12-09T06:10:19.131Z,57.01
2018-12-09T06:10:50.733Z,57.03
2018-12-09T06:11:22.349Z,57.00
2018-12-09T06:11:53.969Z,56.91
2018-12-09T06:12:25.575Z,56.87
2018-12-09T06:12:57.195Z,56.94
2018-12-09T06:13:28.796Z,56.90
2018-12-09T06:14:00.415Z,56.86
2018-12-09T06:14:32.043Z,56.94
2018-12-09T06:15:13.557Z,56.86
2018-12-09T06:15:45.168Z,57.02
2018-12-09T06:16:16.783Z,56.80
2018-12-09T06:16:48.386Z,56.79
2018-12-09T06:17:19.985Z,56.92
2018-12-09T06:17:51.583Z,56.83
2018-12-09T06:18:23.192Z,56.93
2018-12-09T06:18:54.808Z,56.78
2018-12-09T06:19:26.410Z,56.82
2018-12-09T06:19:58.007Z,56.86
2018-12-09T06:20:29.658Z,56.90
2018-12-09T06:21:01.252Z,56.96
2018-12-09T06:21:32.849Z,56.87
2018-12-09T06:22:04.441Z,56.79
2018-12-09T06:22:36.056Z,56.87
2018-12-09T06:23:07.647Z,56.80
2018-12-09T06:23:39.249Z,56.90
2018-12-09T06:24:10.846Z,56.84
2018-12-09T06:24:42.428Z,56.83
2018-12-09T06:25:14.031Z,56.81
2018-12-09T06:25:45.645Z,56.81
2018-12-09T06:26:17.241Z,56.81
2018-12-09T06:26:48.864Z,56.74
2018-12-09T06:27:20.467Z,56.74
2018-12-09T06:27:52.066Z,56.79
2018-12-09T06:28:23.675Z,56.75
2018-12-09T06:28:55.274Z,56.72
2018-12-09T06:29:26.922Z,56.81
2018-12-09T06:29:58.517Z,56.75
2018-12-09T06:30:30.166Z,56.98
2018-12-09T06:31:01.771Z,56.82
2018-12-09T06:31:33.369Z,56.87
2018-12-09T06:32:04.975Z,56.93
2018-12-09T06:32:36.563Z,56.89
2018-12-09T06:33:08.161Z,56.97
2018-12-09T06:33:39.774Z,56.93
2018-12-09T06:34:11.379Z,57.03
2018-12-09T06:34:42.982Z,57.20
2018-12-09T06:35:14.587Z,57.17
2018-12-09T06:35:46.231Z,57.23
2018-12-09T06:36:17.843Z,57.22
2018-12-09T06:36:49.441Z,57.32
2018-12-09T06:37:21.050Z,57.28
2018-12-09T06:37:52.643Z,57.40
2018-12-09T06:38:24.300Z,57.59
2018-12-09T06:38:55.897Z,57.56
2018-12-09T06:39:27.497Z,57.41
2018-12-09T06:39:59.093Z,57.53
2018-12-09T06:40:30.777Z,57.35
2018-12-09T06:41:02.405Z,57.54
2018-12-09T06:41:34.012Z,57.39
2018-12-09T06:42:05.621Z,57.46
2018-12-09T06:42:37.222Z,57.43
2018-12-09T06:43:08.804Z,57.51
2018-12-09T06:43:40.402Z,57.48
2018-12-09T06:44:12.057Z,57.39
2018-12-09T06:44:43.659Z,57.48
2018-12-09T06:45:15.274Z,57.45
2018-12-09T06:45:46.898Z,57.50
2018-12-09T06:46:18.503Z,57.37
2018-12-09T06:46:50.099Z,57.27
2018-12-09T06:47:21.756Z,57.39